Time;durP1;ratioP1;P1;durP2;ratioP2;P2;SDS_P1;SDS_P2;PMS_P1;PMS_P2;Temp;Humidity;BMP_temperature;BMP_pressure;BME280_temperature;BME280_humidity;BME280_pressure;Samples;Min_cycle;Max_cycle;Signal;HPM_P1;HPM_P2
2020/12/10 00:00:48;;;;;;;25.60;13.40;;;;;;;-2.61;53.80;102117.19;1727269;81;20979;-78
2020/12/10 00:03:16;;;;;;;28.45;13.78;;;;;;;-2.57;53.83;102115.98;1727330;81;21465;-77
2020/12/10 00:05:44;;;;;;;29.75;13.32;;;;;;;-2.60;53.89;102112.48;1727302;81;21023;-75
2020/12/10 00:08:12;;;;;;;26.17;11.60;;;;;;;-2.52;53.94;102110.92;1728482;81;21074;-76
2020/12/10 00:10:40;;;;;;;36.45;12.07;;;;;;;-2.50;53.92;102106.26;1729277;81;20968;-77
2020/12/10 00:13:08;;;;;;;32.35;13.43;;;;;;;-2.51;53.98;102103.26;1727311;81;20936;-76
2020/12/10 00:15:36;;;;;;;23.90;12.33;;;;;;;-2.50;54.12;102107.97;1726964;81;21020;-79
2020/12/10 00:18:04;;;;;;;28.47;12.28;;;;;;;-2.50;54.19;102105.40;1726970;81;22154;-77
2020/12/10 00:20:33;;;;;;;26.55;10.85;;;;;;;-2.41;54.05;102105.98;1726873;81;21110;-78
2020/12/10 00:23:01;;;;;;;22.25;11.30;;;;;;;-2.37;53.96;102103.92;1726805;81;20995;-78
2020/12/10 00:25:29;;;;;;;25.55;11.12;;;;;;;-2.33;53.87;102101.85;1726890;81;20960;-77
2020/12/10 00:27:57;;;;;;;26.17;13.03;;;;;;;-2.30;53.81;102102.75;1726947;81;21027;-77
2020/12/10 00:30:25;;;;;;;22.52;12.93;;;;;;;-2.25;53.76;102103.25;1726904;81;21146;-76
2020/12/10 00:32:54;;;;;;;30.23;13.32;;;;;;;-2.26;53.81;102111.39;1726804;81;21553;-76
2020/12/10 00:35:23;;;;;;;27.90;12.63;;;;;;;-2.25;53.84;102116.95;1726892;81;21023;-76
2020/12/10 00:37:50;;;;;;;36.45;15.60;;;;;;;-2.25;54.00;102115.67;1726791;81;20948;-76
2020/12/10 00:40:19;;;;;;;30.57;14.05;;;;;;;-2.30;54.16;102113.03;1727016;81;20935;-76
2020/12/10 00:42:47;;;;;;;22.22;11.22;;;;;;;-2.34;54.35;102104.81;1726792;81;20951;-77
2020/12/10 00:45:15;;;;;;;18.65;10.05;;;;;;;-2.38;54.77;102109.88;1726779;81;20999;-78
2020/12/10 00:47:43;;;;;;;25.00;11.25;;;;;;;-2.45;54.98;102103.77;1726768;81;21043;-78
2020/12/10 00:50:12;;;;;;;21.10;11.50;;;;;;;-2.51;55.24;102108.39;1727019;81;21458;-77
2020/12/10 00:52:40;;;;;;;24.20;10.03;;;;;;;-2.51;55.51;102100.69;1726981;81;21024;-77
2020/12/10 00:55:10;;;;;;;19.87;9.55;;;;;;;-2.50;55.77;102098.98;1726799;81;22262;-76
2020/12/10 00:57:38;;;;;;;19.77;11.10;;;;;;;-2.52;55.86;102091.66;1726938;81;20956;-76
2020/12/10 01:00:07;;;;;;;20.35;9.65;;;;;;;-2.53;55.98;102086.09;1726783;81;21018;-77
2020/12/10 01:02:35;;;;;;;22.10;10.28;;;;;;;-2.54;56.31;102092.05;1712018;82;21053;-76
2020/12/10 01:05:04;;;;;;;18.67;9.15;;;;;;;-2.52;56.33;102097.66;1726291;80;20976;-81
2020/12/10 01:07:33;;;;;;;23.92;9.78;;;;;;;-2.52;56.37;102098.94;1755311;80;21000;-82
2020/12/10 01:10:03;;;;;;;16.73;8.63;;;;;;;-2.52;56.48;102098.94;1704164;82;21027;-82
2020/12/10 01:12:32;;;;;;;18.37;9.53;;;;;;;-2.48;56.61;102102.44;1705562;82;21492;-80
2020/12/10 01:15:00;;;;;;;18.95;9.98;;;;;;;-2.51;56.77;102099.83;1705561;82;21050;-81
2020/12/10 01:17:28;;;;;;;25.05;10.08;;;;;;;-2.54;56.86;102100.61;1704425;81;21411;-80
2020/12/10 01:19:57;;;;;;;26.87;12.03;;;;;;;-2.59;56.95;102097.11;1755213;80;21259;-81
2020/12/10 01:22:25;;;;;;;20.95;10.38;;;;;;;-2.62;57.29;102095.78;1729665;82;20986;-82
2020/12/10 01:24:53;;;;;;;22.42;11.05;;;;;;;-2.64;57.40;102083.76;1674547;84;21071;-82
2020/12/10 01:27:23;;;;;;;19.90;9.70;;;;;;;-2.67;57.53;102072.98;1674497;84;21651;-80
2020/12/10 01:29:51;;;;;;;24.02;11.15;;;;;;;-2.65;57.74;102075.16;1681349;84;21036;-80
2020/12/10 01:32:24;;;;;;;23.98;10.08;;;;;;;-2.65;57.88;102071.74;1681074;84;21663;-83
2020/12/10 01:34:52;;;;;;;23.35;8.85;;;;;;;-2.68;58.02;102067.42;1659991;84;21015;-81
2020/12/10 01:37:20;;;;;;;24.90;11.65;;;;;;;-2.67;58.20;102074.27;1679655;84;21031;-82
2020/12/10 01:39:48;;;;;;;23.10;10.32;;;;;;;-2.67;58.13;102080.69;1679774;84;20964;-81
2020/12/10 01:42:16;;;;;;;23.92;10.60;;;;;;;-2.67;58.21;102083.25;1679782;84;20971;-83
2020/12/10 01:44:45;;;;;;;29.12;12.78;;;;;;;-2.64;58.28;102086.33;1681089;83;21166;-81
2020/12/10 01:47:13;;;;;;;24.07;12.78;;;;;;;-2.61;58.34;102085.09;1679942;84;21035;-81
2020/12/10 01:49:41;;;;;;;29.35;11.00;;;;;;;-2.52;58.26;102091.66;1679793;84;21043;-80
2020/12/10 01:52:09;;;;;;;17.82;9.33;;;;;;;-2.46;58.28;102089.21;1680922;82;21103;-79
2020/12/10 01:54:37;;;;;;;18.92;9.93;;;;;;;-2.43;58.32;102085.83;1680571;84;21063;-81
2020/12/10 01:57:05;;;;;;;21.82;11.25;;;;;;;-2.41;58.39;102091.43;1681200;84;21188;-81
2020/12/10 01:59:33;;;;;;;20.48;8.30;;;;;;;-2.38;58.37;102074.80;1680141;82;21055;-81
2020/12/10 02:02:01;;;;;;;20.60;9.15;;;;;;;-2.37;58.51;102073.09;1679814;84;21013;-82
2020/12/10 02:04:34;;;;;;;24.23;10.68;;;;;;;-2.36;58.57;102070.53;1679896;84;20980;-81
2020/12/10 02:07:01;;;;;;;15.78;8.55;;;;;;;-2.38;58.81;102069.67;1674770;84;20992;-83
2020/12/10 02:09:32;;;;;;;24.52;12.35;;;;;;;-2.37;58.91;102078.23;1686569;82;21196;-76
2020/12/10 02:12:00;;;;;;;19.82;9.23;;;;;;;-2.38;59.02;102074.80;1700974;83;21030;-77
2020/12/10 02:14:37;;;;;;;17.92;8.63;;;;;;;-2.36;59.07;102077.37;1712942;82;21036;-77
2020/12/10 02:17:07;;;;;;;21.20;10.50;;;;;;;-2.34;59.13;102071.42;1712876;82;21001;-76
2020/12/10 02:19:35;;;;;;;20.20;10.63;;;;;;;-2.32;59.14;102072.31;1712239;81;21017;-76
2020/12/10 02:22:04;;;;;;;26.70;11.48;;;;;;;-2.26;59.09;102069.00;1712711;82;21016;-77
2020/12/10 02:24:32;;;;;;;29.63;13.50;;;;;;;-2.23;59.17;102064.32;1712341;82;21037;-76
2020/12/10 02:27:00;;;;;;;22.95;11.10;;;;;;;-2.28;59.26;102065.96;1710939;81;21499;-77
2020/12/10 02:29:28;;;;;;;25.70;12.75;;;;;;;-2.23;59.24;102072.89;1709521;82;20974;-77
2020/12/10 02:31:56;;;;;;;24.92;11.57;;;;;;;-2.21;59.24;102064.78;1709634;82;20966;-76
2020/12/10 02:34:24;;;;;;;25.05;11.65;;;;;;;-2.18;59.39;102073.84;1709438;81;21903;-77
2020/12/10 02:36:52;;;;;;;23.00;11.65;;;;;;;-2.16;59.28;102077.70;1709217;82;20982;-77
2020/12/10 02:39:20;;;;;;;22.02;11.12;;;;;;;-2.19;59.46;102084.09;1709272;82;21028;-77
2020/12/10 02:41:48;;;;;;;23.25;12.07;;;;;;;-2.17;59.53;102088.84;1709265;82;20958;-77
2020/12/10 02:44:16;;;;;;;23.77;12.03;;;;;;;-2.17;59.57;102102.55;1709207;82;21387;-76
2020/12/10 02:46:44;;;;;;;25.25;11.50;;;;;;;-2.20;59.63;102088.77;1709178;82;20994;-77
2020/12/10 02:49:12;;;;;;;34.73;14.33;;;;;;;-2.19;59.76;102084.09;1709202;82;20989;-78
2020/12/10 02:51:43;;;;;;;33.73;12.88;;;;;;;-2.17;59.90;102078.56;1709111;82;21033;-76
2020/12/10 02:54:11;;;;;;;22.07;12.60;;;;;;;-2.15;59.88;102073.03;1709224;81;21041;-75
2020/12/10 02:56:39;;;;;;;23.50;11.28;;;;;;;-2.14;60.10;102072.17;1709130;82;21064;-76
2020/12/10 02:59:07;;;;;;;17.52;8.68;;;;;;;-2.12;60.17;102061.07;1709183;82;21155;-76
2020/12/10 03:01:35;;;;;;;19.65;9.80;;;;;;;-2.14;60.28;102059.32;1709008;81;20930;-77
2020/12/10 03:04:04;;;;;;;19.12;8.90;;;;;;;-2.18;60.45;102056.25;1709260;82;20966;-76
2020/12/10 03:06:32;;;;;;;24.20;11.30;;;;;;;-2.21;60.83;102050.66;1709172;82;21026;-75
2020/12/10 03:09:00;;;;;;;21.82;10.43;;;;;;;-2.23;60.91;102040.77;1709074;82;21163;-75
2020/12/10 03:11:31;;;;;;;21.27;10.38;;;;;;;-2.24;61.08;102039.48;1712098;82;21178;31
2020/12/10 03:13:59;;;;;;;24.98;10.70;;;;;;;-2.28;61.18;102052.69;1711184;82;21055;-79
2020/12/10 03:16:27;;;;;;;24.37;11.03;;;;;;;-2.31;61.39;102041.09;1705455;83;20948;-80
2020/12/10 03:18:56;;;;;;;21.10;9.75;;;;;;;-2.33;61.37;102050.48;1724150;82;20949;-79
2020/12/10 03:21:24;;;;;;;17.12;10.38;;;;;;;-2.28;61.34;102046.27;1657280;85;20969;-81
2020/12/10 03:23:53;;;;;;;30.43;11.90;;;;;;;-2.27;61.23;102039.41;1703683;84;22135;-81
2020/12/10 03:26:20;;;;;;;22.35;10.78;;;;;;;-2.25;61.11;102032.17;1656800;85;21020;-80
2020/12/10 03:28:48;;;;;;;19.20;10.05;;;;;;;-2.22;60.95;102029.67;1657024;85;21501;-80
2020/12/10 03:31:15;;;;;;;23.02;9.48;;;;;;;-2.17;60.60;102029.30;1656663;85;20981;-81
2020/12/10 03:33:44;;;;;;;21.90;11.25;;;;;;;-2.23;60.59;102029.63;1656929;85;20985;-80
2020/12/10 03:36:12;;;;;;;22.87;11.68;;;;;;;-2.26;60.65;102046.30;1656919;85;21273;-80
2020/12/10 03:38:39;;;;;;;25.55;11.40;;;;;;;-2.30;60.68;102042.80;1657105;85;21068;-83
2020/12/10 03:41:07;;;;;;;25.00;13.20;;;;;;;-2.31;60.66;102041.09;1656880;85;21545;-79
2020/12/10 03:43:35;;;;;;;19.20;11.50;;;;;;;-2.28;60.65;102035.98;1656928;85;20989;-80
2020/12/10 03:46:02;;;;;;;25.90;11.25;;;;;;;-2.26;60.52;102043.73;1656965;85;21529;-81
2020/12/10 03:48:31;;;;;;;24.05;11.18;;;;;;;-2.21;60.49;102045.94;1656899;85;21169;-80
2020/12/10 03:50:58;;;;;;;21.07;9.75;;;;;;;-2.19;60.45;102052.83;1656856;85;21645;-80
2020/12/10 03:53:26;;;;;;;26.95;11.48;;;;;;;-2.20;60.47;102045.09;1657193;84;21030;-80
2020/12/10 03:55:54;;;;;;;23.60;11.78;;;;;;;-2.22;60.54;102039.05;1703476;83;20977;-80
2020/12/10 03:58:22;;;;;;;29.40;14.07;;;;;;;-2.19;60.60;102037.84;1656718;85;21082;-81
2020/12/10 04:00:50;;;;;;;22.60;11.70;;;;;;;-2.15;60.49;102030.20;1656976;85;22087;-81
2020/12/10 04:03:19;;;;;;;23.32;12.37;;;;;;;-2.11;60.40;102015.70;1656902;85;21392;-81
2020/12/10 04:05:46;;;;;;;26.37;12.58;;;;;;;-2.14;60.48;101997.64;1657015;85;20969;-81
2020/12/10 04:08:15;;;;;;;24.92;11.63;;;;;;;-2.18;60.46;101999.33;1656896;85;21029;-80
2020/12/10 04:10:44;;;;;;;24.05;12.93;;;;;;;-2.24;60.54;102003.52;1657010;85;21036;-82
2020/12/10 04:13:12;;;;;;;28.65;12.80;;;;;;;-2.23;60.57;102005.23;1663011;84;21666;-82
2020/12/10 04:15:40;;;;;;;25.15;11.80;;;;;;;-2.17;60.55;102010.46;1663428;81;21656;-82
2020/12/10 04:18:08;;;;;;;22.22;11.88;;;;;;;-2.18;60.44;102012.17;1688483;83;20983;-81
2020/12/10 04:20:36;;;;;;;26.62;11.70;;;;;;;-2.20;60.43;102004.86;1686910;84;21047;-81
2020/12/10 04:23:07;;;;;;;24.43;11.88;;;;;;;-2.21;60.50;102015.11;1688228;82;21059;-81
2020/12/10 04:25:34;;;;;;;27.50;12.40;;;;;;;-2.25;60.50;102018.04;1688482;83;21201;-81
2020/12/10 04:28:02;;;;;;;26.55;11.30;;;;;;;-2.30;60.63;102027.39;1686826;84;21638;-83
2020/12/10 04:30:32;;;;;;;20.82;9.40;;;;;;;-2.30;60.69;102027.39;1714010;82;21117;-84
2020/12/10 04:33:00;;;;;;;23.65;10.88;;;;;;;-2.34;60.73;102027.75;1658968;85;21397;-83
2020/12/10 04:35:29;;;;;;;25.32;12.68;;;;;;;-2.40;60.86;102027.67;1688260;82;20999;-83
2020/12/10 04:37:58;;;;;;;19.35;10.32;;;;;;;-2.40;61.03;102025.11;1689181;83;21656;-83
2020/12/10 04:40:28;;;;;;;21.48;10.60;;;;;;;-2.41;61.15;102025.92;1688918;83;21058;-82
2020/12/10 04:42:59;;;;;;;23.98;12.85;;;;;;;-2.45;61.35;102037.41;1689022;83;20935;-82
2020/12/10 04:45:27;;;;;;;21.77;11.68;;;;;;;-2.48;61.50;102034.81;1666111;83;20990;-80
2020/12/10 04:47:57;;;;;;;25.82;12.88;;;;;;;-2.48;61.67;102042.52;1688513;83;21027;-82
2020/12/10 04:50:27;;;;;;;30.65;13.45;;;;;;;-2.50;61.81;102048.90;1664367;83;22092;-82
2020/12/10 04:52:55;;;;;;;26.55;11.90;;;;;;;-2.48;61.88;102043.80;1688311;83;21078;-81
2020/12/10 04:55:22;;;;;;;29.02;13.03;;;;;;;-2.47;61.94;102045.52;1688448;82;21650;-80
2020/12/10 04:57:52;;;;;;;32.98;13.40;;;;;;;-2.44;61.95;102045.16;1686705;84;20971;-80
2020/12/10 05:00:21;;;;;;;29.50;12.58;;;;;;;-2.37;61.97;102049.55;1685262;84;20915;-81
2020/12/10 05:02:49;;;;;;;28.27;13.15;;;;;;;-2.35;61.97;102044.02;1685356;83;22140;-82
2020/12/10 05:05:25;;;;;;;30.25;12.30;;;;;;;-2.34;62.03;102045.73;1685247;84;20979;-84
2020/12/10 05:07:54;;;;;;;24.80;11.30;;;;;;;-2.26;62.02;102045.88;1685557;84;21035;-83
2020/12/10 05:10:22;;;;;;;23.47;12.03;;;;;;;-2.18;61.84;102051.12;1685354;82;22003;-84
2020/12/10 05:12:50;;;;;;;27.05;12.03;;;;;;;-2.13;61.88;102067.49;1685346;84;21343;-83
2020/12/10 05:15:31;;;;;;;22.25;10.45;;;;;;;-2.11;61.88;102047.83;1687108;83;21663;-83
2020/12/10 05:18:11;;;;;;;24.47;9.80;;;;;;;-2.11;61.97;102049.11;1751427;79;21506;-77
2020/12/10 05:20:55;;;;;;;21.57;11.40;;;;;;;-2.08;61.94;102051.71;1753608;81;21012;-78
2020/12/10 05:23:38;;;;;;;22.15;10.90;;;;;;;-2.12;62.04;102052.08;1766797;81;20937;-79
2020/12/10 05:26:08;;;;;;;21.23;8.78;;;;;;;-2.12;62.11;102050.79;1741535;81;21040;-82
2020/12/10 05:28:48;;;;;;;19.77;9.58;;;;;;;-2.14;62.21;102042.19;1741779;81;22542;-86
2020/12/10 05:31:19;;;;;;;19.50;10.80;;;;;;;-2.16;62.27;102049.01;1765535;81;21060;-85
2020/12/10 05:33:57;;;;;;;30.32;13.58;;;;;;;-2.19;62.35;102039.98;1741531;81;21379;-84
2020/12/10 05:36:29;;;;;;;26.05;13.03;;;;;;;-2.20;62.38;102040.84;1741624;81;20948;-85
2020/12/10 05:39:04;;;;;;;23.52;11.88;;;;;;;-2.17;62.32;102032.30;1731164;82;21062;-82
2020/12/10 05:41:35;;;;;;;24.37;13.15;;;;;;;-2.09;62.04;102033.27;1706795;82;21624;-83
2020/12/10 05:44:22;;;;;;;23.00;12.28;;;;;;;-2.04;61.75;102041.08;1706539;82;20974;-83
2020/12/10 05:47:05;;;;;;;27.60;13.05;;;;;;;-2.07;61.70;102040.58;1706512;82;21037;-83
2020/12/10 05:49:34;;;;;;;35.23;13.15;;;;;;;-2.06;61.74;102035.90;1685697;82;20994;-83
2020/12/10 05:52:04;;;;;;;23.75;11.57;;;;;;;-2.02;61.71;102038.08;1728432;82;21001;-83
2020/12/10 05:54:34;;;;;;;21.62;11.18;;;;;;;-1.98;61.65;102032.14;1765312;81;20925;-82
2020/12/10 05:57:05;;;;;;;22.62;9.78;;;;;;;-2.01;61.72;102035.97;1741462;81;21386;-82
2020/12/10 05:59:33;;;;;;;27.90;11.55;;;;;;;-2.06;61.84;102032.47;1741382;81;20944;-83
2020/12/10 06:04:04;;;;;;;31.02;12.00;;;;;;;-2.08;62.03;102028.58;1845148;76;22602;-82
2020/12/10 06:06:33;;;;;;;17.85;8.43;;;;;;;-2.12;62.09;102033.23;1822971;77;21025;-81
2020/12/10 06:09:04;;;;;;;18.77;9.13;;;;;;;-2.12;62.03;102033.23;1729773;80;21050;-81
2020/12/10 06:11:33;;;;;;;19.45;8.73;;;;;;;-2.15;62.02;102034.48;1785001;80;21061;-83
2020/12/10 06:14:07;;;;;;;17.62;9.43;;;;;;;-2.19;62.08;102048.12;1755907;80;21024;-83
2020/12/10 06:16:34;;;;;;;19.92;9.63;;;;;;;-2.24;62.11;102034.34;1813790;78;21033;-80
2020/12/10 06:19:10;;;;;;;21.23;10.38;;;;;;;-2.28;62.26;102042.84;1755123;80;21039;-87
2020/12/10 06:21:45;;;;;;;21.48;10.48;;;;;;;-2.27;62.36;102027.42;1786777;80;21169;-88
2020/12/10 06:24:31;;;;;;;22.90;10.75;;;;;;;-2.25;62.41;102015.90;1745425;78;21033;-80
2020/12/10 06:26:59;;;;;;;21.90;11.10;;;;;;;-2.23;62.48;102020.64;1708974;81;21059;-81
2020/12/10 06:29:32;;;;;;;21.75;11.33;;;;;;;-2.24;62.42;102014.64;1730548;81;21518;-79
2020/12/10 06:32:13;;;;;;;21.23;9.90;;;;;;;-2.19;62.36;102017.28;1740086;81;21469;-79
2020/12/10 06:34:53;;;;;;;25.02;11.68;;;;;;;-2.17;62.46;102016.45;1729293;81;22097;-80
2020/12/10 06:37:28;;;;;;;26.30;12.03;;;;;;;-2.14;62.38;102028.05;1740065;81;21023;-79
2020/12/10 06:40:01;;;;;;;24.77;11.28;;;;;;;-2.12;62.28;102017.81;1730428;81;20993;-78
2020/12/10 06:42:48;;;;;;;27.82;12.35;;;;;;;-2.10;62.25;102015.70;1740205;81;21063;-75
2020/12/10 06:45:40;;;;;;;24.40;11.85;;;;;;;-2.05;62.44;102005.48;1730651;81;20921;-76
2020/12/10 06:48:10;;;;;;;19.85;10.45;;;;;;;-1.99;62.30;102012.01;1740144;81;21370;-76
2020/12/10 06:50:40;;;;;;;20.97;11.45;;;;;;;-1.97;62.31;102015.89;1730526;81;21008;-75
2020/12/10 06:53:21;;;;;;;28.10;13.68;;;;;;;-1.97;62.48;102010.33;1740155;81;21035;-75
2020/12/10 06:56:01;;;;;;;27.00;13.83;;;;;;;-1.95;62.52;102003.50;1728730;81;21017;-76
2020/12/10 06:58:42;;;;;;;24.15;12.63;;;;;;;-1.92;62.56;102002.25;1740571;81;21441;-79
2020/12/10 07:01:35;;;;;;;24.43;11.22;;;;;;;-1.90;62.66;101999.27;1729196;81;21827;-84
2020/12/10 07:04:18;;;;;;;23.40;12.23;;;;;;;-1.88;62.66;102005.73;1740232;81;21111;-87
2020/12/10 07:06:46;;;;;;;28.98;11.08;;;;;;;-1.88;62.66;101997.59;1730706;81;20937;-86
2020/12/10 07:09:14;;;;;;;28.12;11.20;;;;;;;-1.87;62.71;101993.31;1740292;81;20936;-87
2020/12/10 07:11:45;;;;;;;24.82;13.00;;;;;;;-1.85;62.67;101990.34;1730724;81;21637;-85
2020/12/10 07:14:35;;;;;;;22.27;11.68;;;;;;;-1.81;62.52;101992.11;1740003;81;22193;-84
2020/12/10 07:17:00;;;;;;;25.72;13.00;;;;;;;-1.77;62.46;101986.17;1710741;82;21078;-84
2020/12/10 07:19:30;;;;;;;28.32;14.40;;;;;;;-1.75;62.43;101989.63;1740168;81;21067;-88
2020/12/10 07:22:00;;;;;;;36.23;14.30;;;;;;;-1.71;62.41;101979.83;1755332;81;20938;-84
2020/12/10 07:24:28;;;;;;;27.02;13.05;;;;;;;-1.64;62.30;101978.63;1732048;82;21508;-84
2020/12/10 07:26:56;;;;;;;32.10;13.50;;;;;;;-1.59;62.16;101977.82;1729334;81;21960;-77
2020/12/10 07:29:24;;;;;;;30.82;16.00;;;;;;;-1.56;62.17;101981.70;1768433;79;20986;-77
2020/12/10 07:31:53;;;;;;;30.57;16.20;;;;;;;-1.48;62.06;101975.38;1748588;80;20943;-80
2020/12/10 07:34:21;;;;;;;34.58;14.33;;;;;;;-1.40;61.88;101972.87;1700420;83;20981;-79
2020/12/10 07:36:55;;;;;;;32.00;13.15;;;;;;;-1.35;61.87;101978.53;1748869;80;20994;-77
2020/12/10 07:39:32;;;;;;;27.02;12.88;;;;;;;-1.22;61.65;101988.55;1761878;80;21632;-79
2020/12/10 07:42:00;;;;;;;32.17;13.22;;;;;;;-1.15;61.31;101985.18;1761771;80;20966;-78
2020/12/10 07:44:30;;;;;;;31.85;14.55;;;;;;;-1.09;61.20;101992.08;1761910;80;21029;-77
2020/12/10 07:46:59;;;;;;;31.40;12.40;;;;;;;-1.03;61.10;101999.02;1761844;80;20998;-77
2020/12/10 07:49:33;;;;;;;35.78;13.62;;;;;;;-0.97;61.12;101994.80;1761921;80;20997;-76
2020/12/10 07:52:06;;;;;;;32.43;14.77;;;;;;;-0.84;60.92;102004.37;1762211;80;22150;-77
2020/12/10 07:54:47;;;;;;;26.50;11.25;;;;;;;-0.72;60.69;101998.89;1761904;80;21388;-77
2020/12/10 07:57:39;;;;;;;24.82;12.63;;;;;;;-0.66;60.49;101996.37;1761903;80;21606;-79
2020/12/10 08:00:09;;;;;;;20.08;9.58;;;;;;;-0.66;60.46;101997.66;1761760;80;21056;-77
2020/12/10 08:03:06;;;;;;;22.25;11.38;;;;;;;-0.67;60.55;102003.64;1787985;79;21590;-78
2020/12/10 08:05:34;;;;;;;26.73;10.18;;;;;;;-0.68;60.64;101992.92;1761830;80;21886;-78
2020/12/10 08:08:02;;;;;;;20.75;10.28;;;;;;;-0.66;60.68;101993.36;1761897;80;20950;-78
2020/12/10 08:10:35;;;;;;;19.48;9.68;;;;;;;-0.65;60.82;102005.81;1761890;80;21321;-78
2020/12/10 08:13:18;;;;;;;25.85;12.03;;;;;;;-0.63;60.76;102002.83;1787946;79;20970;-79
2020/12/10 08:15:48;;;;;;;24.82;11.75;;;;;;;-0.65;60.82;101998.08;1761850;80;21444;-77
2020/12/10 08:18:19;;;;;;;18.23;10.65;;;;;;;-0.61;60.86;102009.29;1761848;80;21244;-79
2020/12/10 08:20:50;;;;;;;23.95;13.05;;;;;;;-0.64;60.94;102012.27;1761942;80;21014;-77
2020/12/10 08:23:19;;;;;;;26.23;12.35;;;;;;;-0.59;60.94;102017.47;1761973;79;21002;-80
2020/12/10 08:25:48;;;;;;;23.80;12.00;;;;;;;-0.56;60.95;102023.06;1761798;80;21033;-77
2020/12/10 08:28:17;;;;;;;20.82;11.75;;;;;;;-0.52;60.93;102020.52;1751864;80;21001;-77
2020/12/10 08:30:53;;;;;;;28.80;12.30;;;;;;;-0.48;60.86;102024.00;1731239;77;21671;-83
2020/12/10 08:33:21;;;;;;;32.15;12.40;;;;;;;-0.40;60.76;102021.47;1654727;85;21078;-84
2020/12/10 08:35:49;;;;;;;31.70;13.38;;;;;;;-0.33;60.69;102023.27;1748912;80;20940;-85
2020/12/10 08:38:23;;;;;;;32.25;13.43;;;;;;;-0.29;60.55;102024.59;1712754;83;20987;-84
2020/12/10 08:40:55;;;;;;;31.17;14.65;;;;;;;-0.22;60.50;102025.50;1694639;83;20976;-85
2020/12/10 08:43:24;;;;;;;29.07;14.35;;;;;;;-0.22;60.51;102012.18;1712648;83;21043;-85
2020/12/10 08:45:52;;;;;;;29.37;13.03;;;;;;;-0.14;60.45;102018.66;1748518;81;21054;-85
2020/12/10 08:48:28;;;;;;;30.72;12.75;;;;;;;-0.07;60.37;102007.96;1712748;82;20983;-83
2020/12/10 08:51:00;;;;;;;31.48;15.45;;;;;;;0.05;60.22;102008.48;1748625;80;20980;-85
2020/12/10 08:53:29;;;;;;;38.78;18.90;;;;;;;0.08;60.01;102002.05;1712855;83;20973;-86
2020/12/10 08:55:58;;;;;;;45.05;23.25;;;;;;;0.10;60.04;101992.17;1748586;80;21464;-84
2020/12/10 08:58:28;;;;;;;49.90;25.55;;;;;;;0.13;60.01;101997.77;1748585;80;21023;-86
2020/12/10 09:00:59;;;;;;;45.43;21.40;;;;;;;0.11;60.00;101984.88;1748534;80;21544;-85
2020/12/10 09:03:28;;;;;;;35.00;18.45;;;;;;;0.13;60.08;101984.88;1748516;81;21516;-89
2020/12/10 09:05:58;;;;;;;30.32;17.12;;;;;;;0.10;60.28;101980.56;1712738;82;20971;-89
2020/12/10 09:08:29;;;;;;;34.75;17.05;;;;;;;0.12;60.39;101974.12;1748468;80;21138;-86
2020/12/10 09:10:58;;;;;;;40.43;17.62;;;;;;;0.18;60.45;101980.62;1712811;82;20984;-85
2020/12/10 09:13:28;;;;;;;40.10;19.52;;;;;;;0.29;60.32;101972.91;1749552;80;20952;-84
2020/12/10 09:15:56;;;;;;;35.00;18.87;;;;;;;0.31;60.31;101973.38;1713026;83;20974;-85
2020/12/10 09:18:25;;;;;;;29.75;15.08;;;;;;;0.37;60.27;101977.24;1748887;80;21034;-85
2020/12/10 09:20:55;;;;;;;30.88;15.10;;;;;;;0.44;60.31;101974.69;1713205;82;21012;-82
2020/12/10 09:23:24;;;;;;;29.85;16.55;;;;;;;0.48;60.24;101968.26;1722891;82;21023;-85
2020/12/10 09:25:53;;;;;;;28.42;14.78;;;;;;;0.50;60.35;101974.72;1712715;82;21023;-85
2020/12/10 09:28:21;;;;;;;25.43;15.48;;;;;;;0.53;60.46;101967.83;1748468;80;21086;-89
2020/12/10 09:30:50;;;;;;;23.18;13.60;;;;;;;0.53;60.80;101960.09;1717178;81;21066;-85
2020/12/10 09:33:18;;;;;;;23.27;13.00;;;;;;;0.56;61.00;101961.84;1731547;78;21893;-78
2020/12/10 09:35:46;;;;;;;27.52;13.83;;;;;;;0.56;61.41;101952.37;1652729;85;20990;-80
2020/12/10 09:38:15;;;;;;;34.70;15.08;;;;;;;0.56;61.73;101951.52;1649210;85;20964;-80
2020/12/10 09:40:46;;;;;;;24.72;14.13;;;;;;;0.53;62.13;101951.05;1649593;85;20961;-80
2020/12/10 09:43:17;;;;;;;18.75;11.33;;;;;;;0.51;62.30;101946.34;1649551;83;21044;-79
2020/12/10 09:45:58;;;;;;;24.53;14.27;;;;;;;0.53;62.49;101946.33;1675101;81;21433;-81
2020/12/10 09:48:21;;;;;;;31.40;14.15;;;;;;;0.54;62.61;101942.91;1677712;81;21040;-81
2020/12/10 09:50:49;;;;;;;24.35;13.93;;;;;;;0.58;62.65;101945.94;1648753;85;21013;-80
2020/12/10 09:53:38;;;;;;;28.20;14.23;;;;;;;0.61;62.53;101954.53;1649729;83;21258;-79
2020/12/10 09:56:32;;;;;;;33.48;18.40;;;;;;;0.66;62.46;101950.67;1649662;81;21100;-80
2020/12/10 09:58:32;;;;;;;35.35;18.20;;;;;;;0.73;62.21;101940.78;1647070;83;21137;-77
2020/12/10 10:01:00;;;;;;;32.63;15.58;;;;;;;0.79;62.08;101942.09;1648989;83;21036;-82
2020/12/10 10:03:28;;;;;;;31.17;15.30;;;;;;;0.82;62.01;101934.38;1649152;85;20977;-81
2020/12/10 10:05:57;;;;;;;27.35;15.63;;;;;;;0.90;62.06;101937.39;1647558;85;20981;-82
2020/12/10 10:08:27;;;;;;;27.50;17.35;;;;;;;0.91;62.12;101933.93;1647368;84;21398;-84
2020/12/10 10:10:56;;;;;;;48.52;24.15;;;;;;;0.93;62.09;101930.92;1647182;85;21168;-82
2020/12/10 10:13:24;;;;;;;35.55;21.27;;;;;;;0.93;62.16;101925.76;1646641;85;21016;-83
2020/12/10 10:15:52;;;;;;;29.75;17.98;;;;;;;0.93;62.32;101928.34;1646895;84;21036;-80
2020/12/10 10:18:22;;;;;;;41.40;19.15;;;;;;;0.91;62.44;101928.36;1646910;85;21080;-82
2020/12/10 10:20:51;;;;;;;38.75;21.15;;;;;;;0.91;62.51;101919.73;1646945;85;20988;-82
2020/12/10 10:23:19;;;;;;;35.58;19.48;;;;;;;0.94;62.52;101927.06;1646091;85;21190;-82
2020/12/10 10:25:47;;;;;;;38.73;18.90;;;;;;;0.99;62.50;101908.98;1646569;85;20992;-81
2020/12/10 10:28:16;;;;;;;37.83;19.62;;;;;;;1.06;62.37;101906.83;1646406;84;21010;-82
2020/12/10 10:30:44;;;;;;;33.00;16.45;;;;;;;1.10;62.37;101902.09;1646460;85;20996;-80
2020/12/10 10:33:12;;;;;;;38.58;15.95;;;;;;;1.13;62.38;101895.63;1645345;85;21036;-81
2020/12/10 10:35:40;;;;;;;32.15;18.20;;;;;;;1.16;62.35;101883.16;1644883;84;22231;-82
2020/12/10 10:38:08;;;;;;;32.25;18.82;;;;;;;1.19;62.28;101885.73;1644530;85;21105;-80
2020/12/10 10:40:40;;;;;;;36.10;20.15;;;;;;;1.20;62.30;101881.86;1641955;85;20988;-81
2020/12/10 10:43:08;;;;;;;36.85;18.77;;;;;;;1.27;62.24;101887.88;1644680;84;21408;-80
2020/12/10 10:45:37;;;;;;;37.45;17.32;;;;;;;1.31;62.16;101890.90;1644663;85;21398;-80
2020/12/10 10:48:06;;;;;;;31.95;15.38;;;;;;;1.38;62.02;101882.67;1644828;85;23492;-85
2020/12/10 10:50:34;;;;;;;29.87;15.70;;;;;;;1.41;62.02;101874.94;1644741;85;21068;-83
2020/12/10 10:53:02;;;;;;;32.67;15.03;;;;;;;1.41;61.95;101878.38;1644718;85;21080;-80
2020/12/10 10:55:30;;;;;;;33.42;15.05;;;;;;;1.40;62.00;101877.08;1623228;85;21649;-80
2020/12/10 10:57:58;;;;;;;25.90;12.63;;;;;;;1.43;62.08;101884.41;1644853;85;21022;-81
2020/12/10 11:00:26;;;;;;;32.03;15.68;;;;;;;1.47;62.02;101881.39;1644650;85;21071;-80
2020/12/10 11:02:54;;;;;;;32.17;15.98;;;;;;;1.50;61.97;101881.37;1644474;84;21048;-80
2020/12/10 11:05:22;;;;;;;38.85;19.05;;;;;;;1.52;62.04;101885.27;1644969;85;20997;-84
2020/12/10 11:07:51;;;;;;;46.20;19.37;;;;;;;1.54;62.22;101879.22;1642119;85;21032;-82
2020/12/10 11:10:22;;;;;;;44.67;18.73;;;;;;;1.53;62.23;101879.22;1644832;84;21133;-81
2020/12/10 11:12:51;;;;;;;47.33;18.00;;;;;;;1.55;62.43;101878.34;1644852;85;21028;-81
2020/12/10 11:15:20;;;;;;;30.57;15.68;;;;;;;1.58;62.25;101865.83;1642342;85;21652;-81
2020/12/10 11:17:48;;;;;;;32.58;18.00;;;;;;;1.60;62.32;101870.16;1644928;84;21506;-81
2020/12/10 11:20:16;;;;;;;33.90;17.10;;;;;;;1.66;62.39;101880.91;1642164;85;21458;-81
2020/12/10 11:22:43;;;;;;;31.05;18.10;;;;;;;1.70;62.45;101875.30;1644862;84;21006;-81
2020/12/10 11:25:11;;;;;;;32.45;15.18;;;;;;;1.76;62.38;101880.46;1645114;85;21201;-82
2020/12/10 11:27:40;;;;;;;30.97;16.07;;;;;;;1.78;62.45;101882.58;1645356;85;21107;-80